Time;durP1;ratioP1;P1;durP2;ratioP2;P2;SDS_P1;SDS_P2;PMS_P1;PMS_P2;Temp;Humidity;BMP_temperature;BMP_pressure;BME280_temperature;BME280_humidity;BME280_pressure;Samples;Min_cycle;Max_cycle;Signal;HPM_P1;HPM_P2
2022/12/15 00:38:44;;;;;;;;;59.75;48.25;;;;;2.95;53.09;100435.06;2440961;28;44921;-90
2022/12/15 00:39:58;;;;;;;;;64.50;48.75;;;;;2.90;53.06;100432.50;2430476;28;45371;-89
2022/12/15 00:41:13;;;;;;;;;63.50;51.00;;;;;2.91;52.57;100442.03;2434020;28;45441;-90
2022/12/15 00:42:27;;;;;;;;;61.00;43.00;;;;;2.90;52.96;100435.97;2430534;28;44760;-90
2022/12/15 00:43:38;;;;;;;;;64.75;48.75;;;;;2.90;53.11;100435.97;2423859;28;46503;-89
2022/12/15 00:44:49;;;;;;;;;57.75;44.00;;;;;2.89;53.13;100444.59;2423540;28;45273;-90
2022/12/15 00:47:32;;;;;;;;;61.75;49.25;;;;;2.87;52.47;100441.16;2434039;28;45293;-90
2022/12/15 00:48:43;;;;;;;;;58.75;45.00;;;;;2.85;52.66;100431.66;2440004;28;48106;-89
2022/12/15 01:21:11;;;;;;;;;73.25;53.00;;;;;2.80;53.64;100465.44;2440636;28;45432;-90
2022/12/15 01:22:22;;;;;;;;;62.00;47.75;;;;;2.80;53.70;100465.44;2430349;28;45181;-90
2022/12/15 01:23:33;;;;;;;;;61.00;46.75;;;;;2.80;53.75;100473.22;2433262;28;45391;-90
2022/12/15 01:24:44;;;;;;;;;63.25;45.25;;;;;2.81;53.69;100474.97;2429491;28;45312;-90
2022/12/15 01:25:54;;;;;;;;;64.50;49.25;;;;;2.76;53.27;100468.91;2422982;28;48605;-90
2022/12/15 01:27:05;;;;;;;;;60.25;48.75;;;;;2.77;53.17;100481.00;2423999;28;45349;-90
2022/12/15 01:28:15;;;;;;;;;58.50;45.75;;;;;2.75;53.77;100478.44;2434800;28;45428;-90
2022/12/15 01:29:26;;;;;;;;;66.75;50.25;;;;;2.76;53.95;100474.13;2431969;28;45348;-90
2022/12/15 01:30:36;;;;;;;;;60.75;47.25;;;;;2.78;53.86;100472.38;2431659;28;46412;-90
2022/12/15 01:31:46;;;;;;;;;59.50;49.75;;;;;2.75;53.67;100464.59;2424632;28;45335;-89
2022/12/15 01:32:57;;;;;;;;;58.00;48.00;;;;;2.76;53.57;100474.13;2433889;28;45340;-90
2022/12/15 01:34:07;;;;;;;;;60.75;49.25;;;;;2.76;53.68;100474.13;2441994;28;45351;-90
2022/12/15 01:35:19;;;;;;;;;56.75;46.50;;;;;2.74;53.71;100466.31;2431365;28;47101;-90
2022/12/15 01:36:29;;;;;;;;;58.75;45.00;;;;;2.75;53.89;100473.25;2425136;28;45497;-90
2022/12/15 01:37:40;;;;;;;;;61.00;45.75;;;;;2.74;53.64;100475.84;2434559;28;45200;-90
2022/12/15 01:38:50;;;;;;;;;56.75;46.25;;;;;2.75;53.58;100481.03;2431614;28;45134;-90
2022/12/15 01:41:30;;;;;;;;;61.75;47.75;;;;;2.74;53.49;100478.47;2437898;28;44635;-90
2022/12/15 01:42:41;;;;;;;;;64.00;49.00;;;;;2.74;53.98;100481.06;2430848;28;47337;-89
2022/12/15 01:43:51;;;;;;;;;67.00;49.00;;;;;2.72;53.92;100477.59;2424963;28;45492;-90
2022/12/15 01:45:20;;;;;;;;;61.50;50.50;;;;;2.71;53.46;100471.53;2424634;28;47131;-90
2022/12/15 01:46:30;;;;;;;;;61.50;44.50;;;;;2.67;53.89;100472.41;2427980;28;44611;-90
2022/12/15 01:47:41;;;;;;;;;62.00;48.75;;;;;2.66;53.87;100475.88;2429866;28;47171;-90
2022/12/15 01:49:09;;;;;;;;;66.00;51.00;;;;;2.63;53.56;100478.47;2434429;28;45183;-90
2022/12/15 01:50:21;;;;;;;;;57.50;45.75;;;;;2.61;53.22;100481.09;2441929;28;46320;-90
2022/12/15 01:51:36;;;;;;;;;60.75;49.50;;;;;2.57;53.38;100482.81;2442435;28;45193;-90
2022/12/15 01:52:47;;;;;;;;;60.75;46.75;;;;;2.56;53.98;100488.03;2430824;28;47384;-89
2022/12/15 01:54:02;;;;;;;;;57.50;47.25;;;;;2.53;53.77;100488.03;2424497;28;44802;-90
2022/12/15 01:55:16;;;;;;;;;60.00;46.50;;;;;2.52;53.53;100488.94;2425303;28;47787;-89
2022/12/15 01:56:30;;;;;;;;;63.50;47.75;;;;;2.49;54.10;100483.75;2431506;28;45348;-90
2022/12/15 01:57:42;;;;;;;;;60.00;50.00;;;;;2.47;53.67;100489.78;2435168;28;46338;-89
2022/12/15 01:58:55;;;;;;;;;65.00;50.25;;;;;2.48;53.72;100488.06;2431656;28;45543;-91
2022/12/15 02:00:07;;;;;;;;;54.00;42.50;;;;;2.46;53.75;100482.88;2425030;28;47473;-90
2022/12/15 02:01:17;;;;;;;;;61.50;44.75;;;;;2.44;53.96;100475.97;2430840;28;45404;-90
2022/12/15 02:02:29;;;;;;;;;61.75;49.25;;;;;2.42;53.71;100475.13;2424341;28;47578;-90
2022/12/15 02:03:41;;;;;;;;;63.00;47.75;;;;;2.40;53.95;100477.69;2424185;28;45276;-91
2022/12/15 02:04:55;;;;;;;;;65.50;49.50;;;;;2.34;54.19;100472.53;2434841;28;45269;-90
2022/12/15 02:06:07;;;;;;;;;66.25;50.50;;;;;2.31;53.91;100480.31;2430435;28;45329;-90
2022/12/15 02:07:18;;;;;;;;;58.50;45.75;;;;;2.26;54.38;100467.38;2434319;28;47919;-89
2022/12/15 02:08:29;;;;;;;;;66.50;50.00;;;;;2.25;54.48;100466.50;2439005;28;45225;-90
2022/12/15 02:09:42;;;;;;;;;58.00;46.75;;;;;2.20;54.26;100468.25;2441669;28;46673;-89
2022/12/15 02:11:03;;;;;;;;;57.75;46.00;;;;;2.16;54.36;100458.75;2430400;28;45279;-90
2022/12/15 02:12:47;;;;;;;;;56.75;46.50;;;;;2.15;55.16;100453.59;2424977;28;48434;-89
2022/12/15 02:14:01;;;;;;;;;64.50;49.00;;;;;2.10;54.68;100451.00;2439464;28;45355;-89
2022/12/15 02:15:29;;;;;;;;;67.75;51.00;;;;;2.08;54.55;100460.50;2431404;28;47987;-89
2022/12/15 02:17:08;;;;;;;;;67.00;50.75;;;;;2.05;54.68;100461.34;2427618;28;44684;-90
2022/12/15 02:18:25;;;;;;;;;61.50;45.00;;;;;2.02;54.51;100462.22;2428765;28;47622;-89
2022/12/15 02:19:54;;;;;;;;;63.75;47.00;;;;;2.04;54.81;100466.56;2435361;28;45338;-89
2022/12/15 02:21:28;;;;;;;;;64.50;51.50;;;;;2.05;54.48;100468.28;2431331;28;47655;-89
2022/12/15 02:23:00;;;;;;;;;54.50;46.50;;;;;2.07;54.54;100471.75;2428673;28;44666;-90
2022/12/15 02:24:23;;;;;;;;;70.25;52.25;;;;;2.08;54.44;100470.84;2440975;28;45485;-90
2022/12/15 02:26:12;;;;;;;;;69.50;50.50;;;;;2.08;54.32;100476.91;2430744;28;45341;-89
2022/12/15 02:27:37;;;;;;;;;65.75;51.25;;;;;2.06;54.38;100470.00;2429514;28;47012;-90
2022/12/15 02:29:06;;;;;;;;;61.25;48.50;;;;;2.05;54.70;100476.91;2425969;28;44762;-90
2022/12/15 02:30:19;;;;;;;;;62.25;49.75;;;;;2.06;54.53;100477.78;2436914;28;45444;-90
2022/12/15 02:31:49;;;;;;;;;62.00;51.50;;;;;2.06;54.77;100477.78;2430202;28;44881;-89
2022/12/15 02:33:08;;;;;;;;;62.25;47.25;;;;;2.07;54.94;100485.56;2430568;28;47166;-90
2022/12/15 02:34:39;;;;;;;;;57.00;45.00;;;;;2.09;55.73;100480.38;2425270;28;45253;-89
2022/12/15 02:35:56;;;;;;;;;60.75;48.25;;;;;2.10;54.82;100479.53;2426437;28;46078;-89
2022/12/15 02:37:13;;;;;;;;;61.25;48.50;;;;;2.10;55.23;100485.53;2435340;28;45327;-91
2022/12/15 02:38:28;;;;;;;;;63.00;47.00;;;;;2.11;55.14;100481.22;2440722;28;45517;-90
2022/12/15 02:39:38;;;;;;;;;65.00;51.00;;;;;2.12;55.17;100482.97;2441599;28;45453;-90
2022/12/15 02:40:56;;;;;;;;;62.00;49.25;;;;;2.10;54.70;100477.78;2441602;28;46267;-89
2022/12/15 02:42:09;;;;;;;;;63.25;50.50;;;;;2.12;55.27;100478.63;2441906;28;45385;-90
2022/12/15 02:43:20;;;;;;;;;64.25;49.50;;;;;2.13;54.57;100480.38;2431165;28;47577;-90
2022/12/15 02:44:38;;;;;;;;;63.00;50.25;;;;;2.11;55.17;100471.72;2424384;28;45166;-90
2022/12/15 02:46:03;;;;;;;;;64.50;50.75;;;;;2.10;54.54;100466.56;2434741;28;47388;-89
2022/12/15 02:47:45;;;;;;;;;60.75;48.75;;;;;2.11;55.39;100465.69;2441530;28;45258;-90
2022/12/15 02:49:07;;;;;;;;;65.50;47.75;;;;;2.07;54.56;100470.03;2430586;28;46240;-89
2022/12/15 02:50:35;;;;;;;;;65.00;51.00;;;;;2.10;54.73;100484.72;2435750;28;45449;-89
2022/12/15 02:52:07;;;;;;;;;63.00;49.25;;;;;2.05;54.79;100483.84;2441787;28;46523;-90
2022/12/15 02:53:31;;;;;;;;;66.00;50.75;;;;;2.06;54.40;100493.34;2441858;28;45351;-89
2022/12/15 02:54:41;;;;;;;;;66.75;50.75;;;;;2.06;54.88;100491.63;2430979;28;47556;-90
2022/12/15 02:55:59;;;;;;;;;68.00;49.00;;;;;2.06;55.12;100495.94;2430469;28;45490;-89
2022/12/15 02:57:19;;;;;;;;;61.00;50.00;;;;;2.05;55.04;100491.63;2425217;28;47521;-89
2022/12/15 02:58:51;;;;;;;;;66.00;49.25;;;;;2.01;55.21;100490.75;2426586;28;45260;-89
2022/12/15 03:00:10;;;;;;;;;58.75;44.75;;;;;1.99;54.52;100495.09;2427741;28;46583;-90
2022/12/15 03:01:35;;;;;;;;;66.25;49.00;;;;;2.02;55.27;100493.34;2440239;28;45164;-90
2022/12/15 03:02:52;;;;;;;;;60.00;47.50;;;;;2.03;54.55;100494.19;2441542;28;46314;-90
2022/12/15 03:04:07;;;;;;;;;64.00;51.50;;;;;2.02;54.94;100495.94;2441725;28;45375;-90
2022/12/15 03:05:19;;;;;;;;;69.25;51.00;;;;;1.99;54.58;100489.91;2430964;28;47044;-90
2022/12/15 03:06:29;;;;;;;;;64.50;48.75;;;;;1.98;54.80;100488.16;2415713;28;44746;-90
2022/12/15 03:07:41;;;;;;;;;69.00;51.75;;;;;1.95;54.49;100483.00;2419462;28;46967;-89
2022/12/15 03:08:51;;;;;;;;;65.25;51.25;;;;;1.93;54.87;100476.97;2423572;28;44655;-90
2022/12/15 03:10:04;;;;;;;;;59.00;47.00;;;;;1.89;54.86;100476.09;2424244;28;47040;-89
2022/12/15 03:11:15;;;;;;;;;65.75;50.25;;;;;1.86;54.63;100471.75;2429763;28;45363;-89
2022/12/15 03:12:26;;;;;;;;;68.75;51.00;;;;;1.85;55.05;100474.38;2435049;28;47074;-89
2022/12/15 03:13:36;;;;;;;;;60.25;47.75;;;;;1.85;54.68;100472.63;2440720;28;44651;-89
2022/12/15 03:14:47;;;;;;;;;67.25;51.25;;;;;1.84;55.19;100477.81;2428473;28;47911;-90
2022/12/15 03:15:59;;;;;;;;;63.50;50.75;;;;;1.84;55.58;100472.63;2432921;28;44878;-91
2022/12/15 03:17:09;;;;;;;;;59.50;43.75;;;;;1.82;54.99;100476.97;2430792;28;47026;-88
2022/12/15 03:18:20;;;;;;;;;60.50;46.00;;;;;1.82;55.05;100480.41;2424103;28;45316;-90
2022/12/15 03:19:30;;;;;;;;;61.50;48.25;;;;;1.81;55.58;100473.50;2433668;28;46106;-89
2022/12/15 03:20:41;;;;;;;;;56.50;44.25;;;;;1.79;54.89;100473.50;2431017;28;45218;-89
2022/12/15 03:21:51;;;;;;;;;60.50;46.75;;;;;1.79;54.87;100473.50;2423115;28;47169;-89
2022/12/15 03:23:02;;;;;;;;;68.00;50.75;;;;;1.78;54.94;100469.16;2424192;28;45227;-89
2022/12/15 03:24:12;;;;;;;;;59.00;47.50;;;;;1.76;55.77;100473.50;2433241;28;46533;-89
2022/12/15 03:25:23;;;;;;;;;67.25;53.00;;;;;1.73;54.98;100473.50;2441388;28;45157;-89
2022/12/15 03:26:33;;;;;;;;;66.75;51.25;;;;;1.73;54.98;100470.06;2434860;28;46402;-89
2022/12/15 03:27:45;;;;;;;;;65.75;50.25;;;;;1.71;55.19;100476.94;2433744;28;45408;-89
2022/12/15 03:28:55;;;;;;;;;65.50;51.50;;;;;1.69;55.54;100476.97;2430918;28;47472;-89
2022/12/15 03:30:06;;;;;;;;;41.00;32.25;;;;;1.68;55.10;100481.28;2424008;28;45435;-89
2022/12/15 03:31:16;;;;;;;;;65.25;49.25;;;;;1.67;55.46;100481.28;2423877;28;47163;-90
2022/12/15 03:32:28;;;;;;;;;64.00;49.75;;;;;1.66;55.19;100479.53;2432686;28;46889;-90
2022/12/15 03:33:38;;;;;;;;;56.25;46.50;;;;;1.65;55.49;100478.69;2441477;28;45359;-88
2022/12/15 03:34:49;;;;;;;;;66.25;52.75;;;;;1.63;55.57;100477.81;2430770;28;45450;-89
2022/12/15 03:35:59;;;;;;;;;70.00;53.00;;;;;1.62;55.34;100480.41;2433799;28;45337;-89
2022/12/15 03:37:10;;;;;;;;;66.25;46.25;;;;;1.59;55.61;100475.22;2441508;28;45233;-90
2022/12/15 03:38:20;;;;;;;;;54.00;46.50;;;;;1.58;55.31;100479.56;2430903;28;47865;-89
2022/12/15 03:39:30;;;;;;;;;59.25;48.00;;;;;1.56;55.34;100478.69;2423875;28;45241;-89
2022/12/15 03:40:41;;;;;;;;;58.00;42.25;;;;;1.56;55.32;100487.31;2433755;28;45340;-90
2022/12/15 03:41:51;;;;;;;;;61.00;50.00;;;;;1.56;54.91;100484.72;2430523;28;45168;-89
2022/12/15 03:43:02;;;;;;;;;61.50;50.25;;;;;1.58;55.97;100484.75;2430665;28;48196;-89
2022/12/15 03:44:12;;;;;;;;;63.25;51.00;;;;;1.58;55.65;100474.38;2430578;28;44741;-89
2022/12/15 03:45:24;;;;;;;;;66.50;49.50;;;;;1.57;55.51;100476.09;2423288;28;48157;-89
2022/12/15 03:46:35;;;;;;;;;56.75;48.00;;;;;1.60;54.95;100471.78;2434056;28;45461;-89
2022/12/15 03:47:46;;;;;;;;;67.00;51.00;;;;;1.62;55.72;100467.47;2441082;28;45443;-90
2022/12/15 03:48:57;;;;;;;;;64.25;49.75;;;;;1.61;55.60;100460.53;2430734;28;44688;-89
2022/12/15 03:50:08;;;;;;;;;11.75;5.50;;;;;1.65;55.57;100470.06;2415006;28;48157;-89
2022/12/15 03:51:19;;;;;;;;;60.25;49.00;;;;;1.63;56.18;100461.44;2414440;28;45419;-90
2022/12/15 03:52:30;;;;;;;;;65.50;52.50;;;;;1.63;55.88;100459.66;2413383;28;48297;-89
2022/12/15 03:53:40;;;;;;;;;66.75;52.00;;;;;1.63;55.64;100466.59;2423645;28;45210;-91
2022/12/15 03:54:51;;;;;;;;;66.75;50.50;;;;;1.60;55.33;100462.28;2417713;28;47373;-89
2022/12/15 03:56:01;;;;;;;;;63.50;49.75;;;;;1.61;55.78;100460.53;2404980;28;45236;-90
2022/12/15 03:57:12;;;;;;;;;64.50;51.00;;;;;1.60;55.74;100466.59;2423430;28;46383;-90
2022/12/15 03:58:22;;;;;;;;;62.50;50.00;;;;;1.59;55.82;100462.28;2421277;28;44641;-90
2022/12/15 03:59:32;;;;;;;;;65.00;52.25;;;;;1.60;55.64;100464.00;2414178;28;47280;-89
2022/12/15 04:00:43;;;;;;;;;66.25;49.25;;;;;1.57;55.53;100465.75;2424356;28;45237;-89
2022/12/15 04:01:53;;;;;;;;;58.25;46.50;;;;;1.57;55.78;100465.75;2420505;28;45506;-90
2022/12/15 04:03:03;;;;;;;;;63.00;47.75;;;;;1.54;55.77;100481.28;2421224;28;45154;-91
2022/12/15 04:04:14;;;;;;;;;67.75;52.25;;;;;1.54;55.76;100488.19;2412383;28;47304;-90
2022/12/15 04:05:30;;;;;;;;;65.25;49.50;;;;;1.51;55.32;100494.22;2404459;28;44728;-90
2022/12/15 04:06:40;;;;;;;;;62.00;47.50;;;;;1.48;55.83;100489.06;2414170;28;46204;-90
2022/12/15 04:07:52;;;;;;;;;60.00;45.50;;;;;1.49;56.08;100493.34;2414287;28;45255;-90
2022/12/15 04:09:03;;;;;;;;;65.75;48.25;;;;;1.48;56.23;100491.66;2420929;28;48291;-90
2022/12/15 04:10:13;;;;;;;;;65.75;49.75;;;;;1.46;55.38;100483.00;2421446;28;45274;-91
2022/12/15 04:11:23;;;;;;;;;65.75;51.00;;;;;1.42;56.22;100476.09;2415514;28;48123;-90
2022/12/15 04:12:34;;;;;;;;;64.50;52.00;;;;;1.41;56.09;100480.41;2413678;28;44761;-91
2022/12/15 04:13:44;;;;;;;;;67.00;50.75;;;;;1.38;55.80;100477.81;2424019;28;45371;-90
2022/12/15 04:14:55;;;;;;;;;63.00;47.25;;;;;1.38;55.98;100477.81;2420569;28;44726;-90
2022/12/15 04:16:05;;;;;;;;;58.50;44.75;;;;;1.37;56.48;100477.81;2414149;28;48237;-90
2022/12/15 04:17:15;;;;;;;;;69.00;50.00;;;;;1.33;56.27;100479.53;2414176;28;45249;-90
2022/12/15 04:18:26;;;;;;;;;65.00;47.25;;;;;1.36;56.00;100483.88;2423978;28;45518;-91
2022/12/15 04:21:06;;;;;;;;;67.25;50.75;;;;;1.32;56.07;100491.63;2426874;28;45671;-90
2022/12/15 04:22:16;;;;;;;;;69.50;55.00;;;;;1.31;56.27;100489.88;2430903;28;45138;-91
2022/12/15 04:23:26;;;;;;;;;64.50;50.50;;;;;1.29;55.60;100480.38;2420577;28;47998;-91
2022/12/15 05:32:56;;;;;;;;;64.25;49.25;;;;;1.39;56.72;100486.44;2442608;28;44712;-92
2022/12/15 05:34:06;;;;;;;;;67.00;46.75;;;;;1.39;57.08;100483.84;2431312;28;47088;-91
2022/12/15 05:35:17;;;;;;;;;67.50;53.50;;;;;1.38;56.43;100476.97;2435235;28;45359;-91
2022/12/15 05:36:27;;;;;;;;;70.50;51.25;;;;;1.37;56.28;100482.97;2431917;28;47382;-91
2022/12/15 05:37:37;;;;;;;;;72.75;55.25;;;;;1.37;56.38;100483.84;2432096;28;45316;-90
2022/12/15 05:38:49;;;;;;;;;67.00;53.00;;;;;1.34;56.42;100484.72;2424731;28;47125;-91
2022/12/15 05:40:00;;;;;;;;;65.50;51.75;;;;;1.33;56.40;100482.97;2425310;28;45275;-91
2022/12/15 05:41:10;;;;;;;;;68.25;48.75;;;;;1.32;57.07;100483.84;2420240;28;47244;-91
2022/12/15 05:42:20;;;;;;;;;69.25;52.50;;;;;1.32;55.79;100476.09;2416568;28;45223;-92
2022/12/15 05:43:31;;;;;;;;;66.75;52.00;;;;;1.34;56.42;100479.53;2434426;28;46274;-91
2022/12/15 05:44:42;;;;;;;;;62.25;49.25;;;;;1.35;56.96;100475.22;2441741;28;45233;-90
2022/12/15 05:45:52;;;;;;;;;70.00;54.00;;;;;1.36;57.15;100476.94;2439007;28;45331;-91
2022/12/15 05:47:03;;;;;;;;;62.75;50.50;;;;;1.37;57.20;100489.03;2432823;28;45241;-90
2022/12/15 05:48:13;;;;;;;;;71.25;52.25;;;;;1.37;56.12;100482.97;2431636;28;47963;-91
2022/12/15 05:49:24;;;;;;;;;62.00;53.00;;;;;1.39;56.69;100486.44;2424682;28;45460;-91
2022/12/15 05:50:34;;;;;;;;;71.75;52.50;;;;;1.37;57.05;100480.41;2431718;28;47213;-91
2022/12/15 05:51:46;;;;;;;;;61.00;48.50;;;;;1.39;56.93;100492.47;2424813;28;45446;-91
2022/12/15 05:52:58;;;;;;;;;65.00;49.50;;;;;1.40;56.94;100478.69;2434539;28;48362;-90
2022/12/15 05:54:10;;;;;;;;;65.25;53.50;;;;;1.44;56.94;100493.34;2431307;28;45276;-91
2022/12/15 05:55:20;;;;;;;;;67.00;52.25;;;;;1.45;57.00;100487.31;2425077;28;47237;-91
2022/12/15 05:56:30;;;;;;;;;64.50;52.50;;;;;1.46;56.50;100488.16;2424730;28;45234;-91
2022/12/15 05:57:41;;;;;;;;;69.25;53.75;;;;;1.47;56.57;100489.91;2431702;28;46141;-91
2022/12/15 05:58:51;;;;;;;;;65.00;52.00;;;;;1.47;56.65;100492.50;2431964;28;45217;-91
2022/12/15 06:00:04;;;;;;;;;67.25;51.25;;;;;1.48;55.82;100491.66;2424998;28;48029;-90
2022/12/15 06:01:16;;;;;;;;;71.25;55.50;;;;;1.49;56.60;100487.31;2422115;28;45340;-91
2022/12/15 06:02:30;;;;;;;;;66.75;53.75;;;;;1.48;56.01;100486.47;2426283;28;47279;-91
2022/12/15 06:03:40;;;;;;;;;62.75;50.25;;;;;1.46;57.05;100488.16;2431317;28;45130;-91
2022/12/15 06:04:51;;;;;;;;;62.75;50.75;;;;;1.48;56.53;100490.78;2424694;28;48109;-91
2022/12/15 06:06:01;;;;;;;;;68.00;52.50;;;;;1.46;55.80;100494.22;2431725;28;45292;-92
2022/12/15 06:07:11;;;;;;;;;65.00;54.25;;;;;1.44;56.58;100484.72;2433920;28;45507;-92
2022/12/15 06:08:22;;;;;;;;;64.50;51.00;;;;;1.44;56.14;100489.91;2431313;28;45833;-93
2022/12/15 06:09:33;;;;;;;;;63.75;50.00;;;;;1.46;55.97;100490.75;2421593;28;46791;-92
2022/12/15 06:10:43;;;;;;;;;70.25;53.00;;;;;1.43;56.60;100489.03;2424921;28;45331;-93
2022/12/15 06:11:54;;;;;;;;;62.25;49.00;;;;;1.44;56.16;100488.19;2415265;28;47697;-93
2022/12/15 06:13:04;;;;;;;;;71.25;52.75;;;;;1.44;56.19;100484.72;2420991;28;45410;-93
2022/12/15 06:14:14;;;;;;;;;68.00;55.00;;;;;1.43;56.35;100486.44;2424906;28;47490;-93
2022/12/15 06:15:25;;;;;;;;;68.75;51.00;;;;;1.42;56.61;100481.25;2425127;28;45245;-92
2022/12/15 06:16:35;;;;;;;;;67.75;52.50;;;;;1.43;56.93;100483.00;2423958;28;47142;-93
2022/12/15 06:17:46;;;;;;;;;70.00;51.25;;;;;1.44;56.85;100482.13;2434178;28;45189;-93
2022/12/15 06:18:58;;;;;;;;;60.00;47.75;;;;;1.46;56.57;100489.03;2427046;28;48453;-92
2022/12/15 06:20:09;;;;;;;;;68.25;52.75;;;;;1.44;56.62;100492.50;2425339;28;45272;-93
2022/12/15 06:21:25;;;;;;;;;68.00;50.00;;;;;1.48;56.57;100493.38;2423647;28;47317;-92
2022/12/15 06:22:36;;;;;;;;;69.25;54.25;;;;;1.47;56.68;100492.50;2418464;28;45500;-93
2022/12/15 06:23:46;;;;;;;;;72.75;53.75;;;;;1.49;56.50;100492.50;2434263;28;47082;-94
2022/12/15 06:24:57;;;;;;;;;67.25;55.00;;;;;1.48;56.24;100489.06;2431790;28;45304;-93
2022/12/15 06:26:09;;;;;;;;;71.50;54.50;;;;;1.48;56.68;100486.47;2424795;28;47078;-92
2022/12/15 06:27:19;;;;;;;;;67.25;52.25;;;;;1.48;56.22;100480.41;2431906;28;45304;-93
2022/12/15 06:28:29;;;;;;;;;63.50;51.75;;;;;1.47;56.33;100482.13;2434391;28;47188;-93
2022/12/15 06:29:40;;;;;;;;;71.00;54.50;;;;;1.47;56.50;100484.72;2431783;28;45149;-93
2022/12/15 06:30:55;;;;;;;;;68.00;51.25;;;;;1.46;56.75;100483.84;2434505;28;47039;-94
2022/12/15 06:32:05;;;;;;;;;69.00;53.75;;;;;1.46;56.33;100489.03;2428495;28;45359;-93
2022/12/15 06:33:15;;;;;;;;;68.75;49.50;;;;;1.45;56.43;100484.75;2431675;28;47228;-95
2022/12/15 06:34:27;;;;;;;;;69.00;51.75;;;;;1.42;56.36;100486.44;2431845;28;45307;-94
2022/12/15 06:35:37;;;;;;;;;70.25;50.75;;;;;1.40;56.50;100493.34;2432828;28;47321;-92
2022/12/15 06:36:47;;;;;;;;;71.00;54.75;;;;;1.39;56.45;100486.44;2431552;28;45327;-93
2022/12/15 06:37:58;;;;;;;;;66.50;51.50;;;;;1.36;56.55;100486.44;2424876;28;48127;-94
2022/12/15 06:39:13;;;;;;;;;65.25;53.75;;;;;1.35;56.95;100490.75;2433504;28;45209;-94
2022/12/15 06:40:23;;;;;;;;;56.50;46.00;;;;;1.33;56.63;100495.91;2431715;28;48144;-92
2022/12/15 06:41:34;;;;;;;;;69.25;50.25;;;;;1.34;56.62;100504.56;2424935;28;45462;-95
2022/12/15 06:42:44;;;;;;;;;70.75;55.00;;;;;1.32;56.61;100494.22;2424712;28;48255;-93
2022/12/15 06:43:55;;;;;;;;;76.25;57.00;;;;;1.32;56.20;100490.75;2431679;28;45337;-93
2022/12/15 06:45:07;;;;;;;;;71.75;55.75;;;;;1.33;56.78;100493.34;2424881;28;47162;-95
2022/12/15 06:46:18;;;;;;;;;57.00;46.50;;;;;1.34;56.49;100486.44;2431590;28;45304;-94
2022/12/15 06:47:28;;;;;;;;;73.50;55.75;;;;;1.33;56.16;100489.91;2424645;28;47293;-94
2022/12/15 06:48:41;;;;;;;;;65.50;50.75;;;;;1.32;57.13;100488.16;2424967;28;45348;-93
2022/12/15 06:49:51;;;;;;;;;61.50;52.75;;;;;1.31;56.95;100495.06;2434220;28;47149;-94
2022/12/15 06:51:06;;;;;;;;;73.50;55.75;;;;;1.31;56.75;100494.22;2431836;28;45357;-94
2022/12/15 06:52:16;;;;;;;;;69.25;52.00;;;;;1.30;56.28;100501.13;2425324;28;47556;-94
2022/12/15 06:53:27;;;;;;;;;75.25;54.00;;;;;1.28;56.89;100495.06;2433772;28;44774;-94
2022/12/15 06:54:37;;;;;;;;;72.75;54.25;;;;;1.26;56.57;100491.59;2438420;28;47001;-95
2022/12/15 06:55:47;;;;;;;;;65.00;51.00;;;;;1.28;56.28;100495.06;2431300;28;45240;-94
2022/12/15 06:56:58;;;;;;;;;70.50;55.75;;;;;1.27;57.00;100493.34;2440572;28;47190;-94
2022/12/15 06:58:12;;;;;;;;;65.50;51.75;;;;;1.27;56.84;100503.69;2431434;28;45319;-94
2022/12/15 06:59:22;;;;;;;;;44.00;31.50;;;;;1.25;56.75;100505.41;2424793;28;47241;-94
2022/12/15 07:00:35;;;;;;;;;66.75;52.00;;;;;1.23;56.74;100499.38;2421868;28;45198;-93
2022/12/15 07:01:46;;;;;;;;;70.75;55.50;;;;;1.22;57.32;100500.22;2423043;28;46969;-93
2022/12/15 07:02:56;;;;;;;;;72.00;55.75;;;;;1.23;56.71;100501.97;2424703;28;44614;-94
2022/12/15 07:04:07;;;;;;;;;69.75;53.50;;;;;1.22;56.74;100501.09;2433854;28;47066;-94
2022/12/15 07:05:17;;;;;;;;;71.00;50.00;;;;;1.21;56.99;100503.69;2431506;28;45250;-95
2022/12/15 07:06:34;;;;;;;;;69.00;53.75;;;;;1.22;56.50;100505.41;2424272;28;47149;-94
2022/12/15 07:07:45;;;;;;;;;62.75;52.00;;;;;1.22;56.18;100510.59;2425651;28;45178;-95
2022/12/15 07:08:55;;;;;;;;;68.00;54.00;;;;;1.21;56.67;100506.28;2424215;28;46066;-94
2022/12/15 07:10:06;;;;;;;;;69.50;54.00;;;;;1.22;56.17;100511.47;2431329;28;45260;-93
2022/12/15 07:11:17;;;;;;;;;70.00;54.50;;;;;1.22;56.45;100506.28;2423274;28;46779;-93
2022/12/15 07:12:27;;;;;;;;;67.75;51.00;;;;;1.21;56.56;100508.88;2419718;28;45488;-95
2022/12/15 07:13:38;;;;;;;;;68.50;51.75;;;;;1.20;56.37;100509.72;2418614;28;47081;-93
2022/12/15 07:14:48;;;;;;;;;66.00;53.25;;;;;1.19;57.05;100506.25;2424577;28;45267;-94
2022/12/15 07:16:05;;;;;;;;;71.25;51.00;;;;;1.19;56.26;100507.97;2424234;28;46950;-93
2022/12/15 07:17:15;;;;;;;;;74.75;55.75;;;;;1.20;57.01;100509.72;2425271;28;45418;-95
2022/12/15 07:18:26;;;;;;;;;70.50;53.00;;;;;1.20;56.85;100513.19;2423862;28;46928;-94
2022/12/15 07:19:36;;;;;;;;;68.25;54.75;;;;;1.22;57.12;100514.03;2431527;28;45502;-94
2022/12/15 07:20:46;;;;;;;;;69.25;54.75;;;;;1.23;56.66;100518.34;2424206;28;47564;-94
2022/12/15 07:21:58;;;;;;;;;69.25;54.75;;;;;1.26;56.80;100527.00;2433529;28;45279;-94
2022/12/15 07:23:09;;;;;;;;;74.00;54.00;;;;;1.26;57.15;100529.59;2438271;28;47229;-94
2022/12/15 07:24:21;;;;;;;;;74.00;56.50;;;;;1.28;57.10;100530.47;2424422;28;45392;-94
2022/12/15 07:25:31;;;;;;;;;66.75;54.00;;;;;1.29;56.53;100538.22;2434093;28;47609;-94
2022/12/15 07:26:42;;;;;;;;;68.50;54.25;;;;;1.31;56.24;100540.84;2431270;28;45187;-94
2022/12/15 07:27:52;;;;;;;;;66.75;51.25;;;;;1.32;56.82;100547.72;2434092;28;48081;-94
2022/12/15 07:29:02;;;;;;;;;69.50;54.75;;;;;1.31;57.18;100541.66;2438401;28;44980;-95
2022/12/15 07:30:14;;;;;;;;;68.50;53.75;;;;;1.32;56.98;100551.19;2424187;28;48277;-94
2022/12/15 07:31:25;;;;;;;;;69.50;53.00;;;;;1.33;56.71;100552.91;2424727;28;44782;-94
2022/12/15 07:32:36;;;;;;;;;66.00;51.50;;;;;1.32;56.41;100564.13;2421661;28;48027;-94
2022/12/15 07:33:47;;;;;;;;;67.75;53.25;;;;;1.32;56.98;100558.97;2419047;28;45373;-95
2022/12/15 07:34:57;;;;;;;;;70.25;50.75;;;;;1.30;56.32;100558.09;2416183;28;47183;-94
2022/12/15 07:36:07;;;;;;;;;65.75;51.25;;;;;1.29;56.93;100558.06;2424158;28;44806;-93
2022/12/15 07:37:18;;;;;;;;;67.00;54.00;;;;;1.31;56.44;100557.22;2423397;28;46861;-94
2022/12/15 07:38:29;;;;;;;;;72.25;56.25;;;;;1.30;56.81;100559.81;2424156;28;45439;-93
2022/12/15 07:39:39;;;;;;;;;69.25;54.50;;;;;1.29;56.49;100558.94;2430845;28;47175;-94
2022/12/15 07:40:50;;;;;;;;;69.00;53.00;;;;;1.27;56.48;100558.06;2424352;28;44584;-95
2022/12/15 07:42:01;;;;;;;;;68.25;53.00;;;;;1.26;56.66;100545.97;2424209;28;45212;-94
2022/12/15 07:43:11;;;;;;;;;70.25;55.25;;;;;1.25;56.84;100557.22;2424547;28;45234;-93
2022/12/15 07:44:21;;;;;;;;;74.50;56.00;;;;;1.23;56.83;100554.59;2421201;28;47270;-95
2022/12/15 07:45:32;;;;;;;;;73.50;56.00;;;;;1.24;56.75;100555.47;2419294;28;44716;-93
2022/12/15 07:46:45;;;;;;;;;70.00;54.00;;;;;1.26;57.01;100564.09;2433869;28;46881;-94
2022/12/15 07:47:56;;;;;;;;;70.75;55.25;;;;;1.26;56.38;100553.75;2431348;28;45356;-94
2022/12/15 07:49:06;;;;;;;;;72.25;54.00;;;;;1.28;57.26;100564.13;2433552;28;46981;-95
2022/12/15 07:50:17;;;;;;;;;66.00;53.25;;;;;1.26;56.76;100566.69;2419276;28;45340;-96
2022/12/15 07:51:28;;;;;;;;;71.00;55.75;;;;;1.27;56.37;100564.97;2416732;28;47294;-93
2022/12/15 07:52:39;;;;;;;;;71.75;56.75;;;;;1.25;56.53;100559.81;2421425;28;45300;-94
2022/12/15 07:53:50;;;;;;;;;70.00;53.00;;;;;1.25;56.99;100567.56;2415673;28;47784;-94
2022/12/15 07:55:00;;;;;;;;;70.50;54.00;;;;;1.24;57.00;100555.47;2415970;28;44634;-93
2022/12/15 07:56:10;;;;;;;;;70.50;53.00;;;;;1.27;56.82;100558.06;2414589;28;48270;-93
2022/12/15 07:57:21;;;;;;;;;67.75;51.75;;;;;1.29;56.59;100558.94;2414597;28;45174;-93